Skip Navigation LinksHome page > Weather > Current weather Skip Navigation Links

Current Weather

New Tokyo International (Narita), Tokyo

For information only: do not use for flight planning or navigation.
Latest weather
Observation time Thursday, October 30, 2014 11:00 PM JST
Local time Thursday, October 30, 2014 11:25 PM JST
Flight conditions Visual Meteorological Conditions
Winds
Wind direction South (180°)
Wind speed 3 mph
Visibility 6.2 mi.
Sky condition
Ceiling 6,000 ft. broken clouds
Cloud layer few clouds 3,000 ft.
Cloud layer broken clouds 6,000 ft.
Temperature 59°F
Dewpoint 55°F
Altimeter 30.30 in.Hg
Derived measurements
Relative humidity 88%
Density altitude -77 ft.
Remarks
No significant changes expected in the next two hours.
METAR RJAA 301400Z 18003KT 9999 FEW030 BKN060 15/13 Q1026 NOSIG RMK 1CU030 7SC060 A3030

Settings

Location code

InnerDrive.Weather 4.0.5399.0 Release CLR 4.0.30319.34014
Copyright ©2014 Inner Drive Technology. All rights reserved. Portions Copyright ©1986-2014 David Braverman.

Find weather

Site navigation


Skip Navigation Links

Place info

Page info

PayPal - The safer, easier way to pay online!

Return home.

Copyright ©2014 Inner Drive Technology. Purveyors of fine, hand-crafted computer software. Page printed 2014-10-30T14:25:11 UTC.